createdAt,value
2023-05-23T00:02:00.509Z,75.12
2023-05-23T00:05:04.482Z,75.55
2023-05-23T00:08:05.457Z,76.00
2023-05-23T00:11:07.792Z,76.31
2023-05-23T00:14:08.550Z,77.05
2023-05-23T00:17:08.689Z,77.38
2023-05-23T00:20:09.480Z,77.64
2023-05-23T00:23:11.502Z,77.99
2023-05-23T00:26:11.565Z,78.10
2023-05-23T00:29:11.531Z,78.29
2023-05-23T00:32:11.481Z,78.53
2023-05-23T00:35:11.538Z,78.58
2023-05-23T00:38:13.530Z,78.50
2023-05-23T00:41:07.664Z,78.39
2023-05-23T00:44:07.509Z,78.42
2023-05-23T00:47:09.542Z,78.63
2023-05-23T00:50:09.590Z,79.23
2023-05-23T00:53:09.604Z,79.42
2023-05-23T00:56:09.732Z,79.60
2023-05-23T00:59:09.551Z,79.71
2023-05-23T01:02:10.822Z,79.73
2023-05-23T01:05:10.584Z,79.88
2023-05-23T01:08:12.820Z,80.04
2023-05-23T01:11:17.894Z,80.11
2023-05-23T01:14:28.050Z,80.17
2023-05-23T01:17:47.649Z,80.42
2023-05-23T01:20:56.635Z,80.47
2023-05-23T01:24:21.593Z,80.41
2023-05-23T01:27:57.613Z,80.34
2023-05-23T01:30:57.580Z,80.14
2023-05-23T01:33:59.559Z,80.09
2023-05-23T01:37:01.557Z,80.07
2023-05-23T01:40:03.641Z,79.99
2023-05-23T01:43:04.631Z,80.07
2023-05-23T01:46:06.737Z,80.24
2023-05-23T01:49:07.686Z,80.48
2023-05-23T01:52:07.739Z,80.87
2023-05-23T01:55:07.706Z,81.23
2023-05-23T01:58:08.690Z,81.51
2023-05-23T02:01:08.708Z,81.89
2023-05-23T02:04:08.622Z,81.96
2023-05-23T02:07:08.724Z,82.12
2023-05-23T02:10:08.687Z,82.36
2023-05-23T02:13:08.673Z,82.85
2023-05-23T02:16:13.219Z,83.31
2023-05-23T02:19:15.750Z,83.90
2023-05-23T02:22:15.697Z,84.36
2023-05-23T02:25:15.706Z,84.62
2023-05-23T02:28:15.690Z,84.65
2023-05-23T02:31:15.766Z,84.76
2023-05-23T02:34:18.420Z,84.77
2023-05-23T02:37:18.700Z,84.82
2023-05-23T02:40:18.734Z,84.77
2023-05-23T02:43:18.721Z,84.58
2023-05-23T02:46:19.793Z,84.48
2023-05-23T02:49:19.751Z,84.28
2023-05-23T02:52:19.787Z,84.12
2023-05-23T02:55:19.770Z,83.96
2023-05-23T02:58:19.872Z,83.63
2023-05-23T03:01:19.821Z,83.52
2023-05-23T03:04:20.779Z,83.48
2023-05-23T03:07:28.207Z,83.28
2023-05-23T03:10:28.755Z,82.94
2023-05-23T03:13:31.304Z,82.55
2023-05-23T03:16:31.810Z,82.24
2023-05-23T03:19:34.162Z,81.94
2023-05-23T03:22:35.867Z,81.42
2023-05-23T03:25:35.830Z,80.94
2023-05-23T03:28:35.881Z,80.80
2023-05-23T03:31:35.833Z,80.34
2023-05-23T03:34:36.818Z,79.95
2023-05-23T03:37:40.144Z,79.47
2023-05-23T03:40:39.965Z,79.36
2023-05-23T03:43:42.082Z,79.12
2023-05-23T03:46:46.099Z,78.70
2023-05-23T03:49:59.815Z,78.20
2023-05-23T03:53:00.864Z,77.74
2023-05-23T03:56:01.909Z,76.81
2023-05-23T03:59:02.105Z,76.03
2023-05-23T04:02:04.838Z,75.58
2023-05-23T04:05:04.898Z,75.23
2023-05-23T04:08:07.958Z,74.52
2023-05-23T04:11:07.868Z,73.53
2023-05-23T04:14:07.908Z,72.37
2023-05-23T04:17:07.907Z,71.30
2023-05-23T04:20:07.921Z,70.43
2023-05-23T04:23:07.912Z,69.67
2023-05-23T04:26:10.884Z,69.18
2023-05-23T04:29:17.911Z,68.68
2023-05-23T04:32:17.908Z,67.91
2023-05-23T04:35:18.950Z,67.21
2023-05-23T04:38:19.935Z,66.72
2023-05-23T04:41:21.921Z,66.30
2023-05-23T04:44:59.964Z,65.90
2023-05-23T04:48:27.945Z,65.30
2023-05-23T04:51:27.962Z,64.63
2023-05-23T04:54:37.933Z,63.92
2023-05-23T04:57:37.975Z,63.75
2023-05-23T05:00:40.207Z,63.36
2023-05-23T05:03:42.003Z,62.35
2023-05-23T05:06:41.987Z,61.23
2023-05-23T05:09:42.012Z,60.46
2023-05-23T05:12:41.959Z,59.52
2023-05-23T05:15:43.009Z,58.70
2023-05-23T05:18:44.059Z,57.69
2023-05-23T05:21:46.990Z,57.03
2023-05-23T05:24:47.069Z,56.12
2023-05-23T05:27:47.981Z,55.43
2023-05-23T05:30:49.009Z,54.80
2023-05-23T05:33:52.044Z,54.42
2023-05-23T05:36:54.075Z,54.25
2023-05-23T05:39:54.088Z,53.35
2023-05-23T05:42:55.047Z,52.57
2023-05-23T05:45:56.134Z,52.14
2023-05-23T05:48:57.050Z,50.93
2023-05-23T05:51:59.308Z,49.48
2023-05-23T05:55:01.106Z,48.39
2023-05-23T05:58:02.427Z,47.98
2023-05-23T06:01:18.158Z,47.33
2023-05-23T06:04:18.211Z,46.77
2023-05-23T06:07:18.138Z,46.41
2023-05-23T06:10:20.305Z,45.05
2023-05-23T06:13:22.083Z,44.22
2023-05-23T06:16:23.145Z,43.79
2023-05-23T06:19:23.188Z,43.96
2023-05-23T06:22:23.119Z,44.06
2023-05-23T06:25:23.113Z,44.89
2023-05-23T06:28:23.116Z,45.53
2023-05-23T06:31:23.200Z,46.15
2023-05-23T06:34:24.154Z,46.89
2023-05-23T06:37:24.143Z,47.06
2023-05-23T06:40:25.155Z,46.59
2023-05-23T06:43:25.129Z,46.11
2023-05-23T06:46:43.172Z,45.72
2023-05-23T06:49:43.160Z,45.40
2023-05-23T06:52:43.221Z,45.09
2023-05-23T06:55:43.374Z,44.47
2023-05-23T06:58:47.084Z,42.81
2023-05-23T07:01:49.271Z,40.80
2023-05-23T07:04:51.215Z,39.10
2023-05-23T07:08:10.166Z,37.99
2023-05-23T07:11:21.252Z,37.75
2023-05-23T07:14:24.225Z,37.71
2023-05-23T07:17:27.321Z,38.93
2023-05-23T07:20:28.267Z,39.72
2023-05-23T07:23:36.283Z,39.47
2023-05-23T07:26:36.282Z,37.78
2023-05-23T07:29:36.240Z,36.52
2023-05-23T07:32:37.436Z,35.86
2023-05-23T07:35:37.232Z,35.85
2023-05-23T07:38:37.263Z,35.42
2023-05-23T07:41:37.251Z,34.79
2023-05-23T07:44:37.242Z,35.09
2023-05-23T07:47:37.438Z,34.28
2023-05-23T07:50:38.392Z,33.80
2023-05-23T07:53:41.313Z,33.77
2023-05-23T07:56:42.317Z,33.59
2023-05-23T07:59:43.538Z,33.26
2023-05-23T08:03:03.307Z,32.89
2023-05-23T08:06:07.286Z,33.15
2023-05-23T08:09:07.343Z,33.07
2023-05-23T08:12:10.296Z,33.03
2023-05-23T08:15:10.331Z,33.26
2023-05-23T08:18:15.479Z,33.43
2023-05-23T08:21:15.569Z,32.56
2023-05-23T08:24:15.465Z,32.38
2023-05-23T08:27:17.464Z,31.85
2023-05-23T08:30:21.372Z,31.45
2023-05-23T08:33:21.383Z,31.89
2023-05-23T08:36:22.322Z,31.97
2023-05-23T08:39:22.391Z,31.65
2023-05-23T08:42:38.442Z,31.95
2023-05-23T08:45:40.435Z,31.44
2023-05-23T08:48:40.459Z,30.93
2023-05-23T08:51:41.424Z,30.35
2023-05-23T08:54:53.134Z,30.04
2023-05-23T08:57:55.433Z,29.78
2023-05-23T09:01:07.675Z,29.49
2023-05-23T09:04:11.622Z,29.22
2023-05-23T09:07:19.439Z,29.37
2023-05-23T09:10:28.444Z,29.68
2023-05-23T09:13:30.392Z,29.23
2023-05-23T09:16:32.533Z,28.91
2023-05-23T09:19:36.546Z,28.69
2023-05-23T09:22:46.650Z,28.10
2023-05-23T09:25:46.488Z,27.93
2023-05-23T09:28:48.460Z,27.58
2023-05-23T09:31:50.545Z,27.93
2023-05-23T09:34:56.527Z,27.87
2023-05-23T09:38:02.470Z,27.82
2023-05-23T09:41:03.482Z,27.65
2023-05-23T09:44:05.637Z,27.58
2023-05-23T09:47:07.670Z,27.47
2023-05-23T09:50:07.521Z,27.51
2023-05-23T09:53:07.486Z,27.93
2023-05-23T09:56:07.514Z,28.30
2023-05-23T09:59:08.593Z,28.42
2023-05-23T10:02:09.573Z,27.90
2023-05-23T10:05:09.530Z,27.41
2023-05-23T10:08:13.536Z,27.29
2023-05-23T10:11:28.512Z,27.11
2023-05-23T10:14:29.644Z,26.70
2023-05-23T10:17:52.669Z,26.46
2023-05-23T10:20:53.536Z,26.43
2023-05-23T10:23:54.576Z,26.54
2023-05-23T10:26:56.541Z,26.57
2023-05-23T10:29:56.558Z,26.49
2023-05-23T10:32:56.572Z,26.61
2023-05-23T10:36:21.627Z,26.46
2023-05-23T10:39:29.590Z,26.45
2023-05-23T10:42:58.601Z,26.36
2023-05-23T10:45:58.740Z,26.34
2023-05-23T10:48:58.634Z,26.14
2023-05-23T10:52:05.626Z,26.13
2023-05-23T10:55:06.613Z,25.92
2023-05-23T10:58:28.617Z,25.93
2023-05-23T11:01:28.683Z,25.96
2023-05-23T11:04:21.953Z,25.87
2023-05-23T11:07:44.666Z,26.13
2023-05-23T11:10:44.668Z,26.36
2023-05-23T11:14:08.673Z,26.47
2023-05-23T11:17:08.677Z,26.51
2023-05-23T11:20:14.638Z,26.60
2023-05-23T11:23:16.726Z,26.95
2023-05-23T11:26:17.751Z,27.21
2023-05-23T11:29:20.740Z,27.41
2023-05-23T11:32:24.881Z,27.50
2023-05-23T11:35:24.908Z,27.62
2023-05-23T11:38:24.707Z,27.77
2023-05-23T11:41:24.756Z,27.44
2023-05-23T11:44:25.696Z,27.26
2023-05-23T11:47:25.714Z,27.33
2023-05-23T11:50:26.799Z,27.54
2023-05-23T11:53:27.790Z,27.70
2023-05-23T11:56:27.797Z,27.54
2023-05-23T11:59:27.765Z,27.27
2023-05-23T12:02:27.852Z,27.29
2023-05-23T12:05:27.763Z,27.94
2023-05-23T12:08:27.740Z,28.06
2023-05-23T12:11:30.215Z,28.38
2023-05-23T12:14:31.768Z,28.82
2023-05-23T12:17:33.817Z,29.12
2023-05-23T12:20:33.958Z,29.37
2023-05-23T12:23:35.848Z,29.82
2023-05-23T12:26:35.836Z,30.21
2023-05-23T12:29:42.077Z,30.48
2023-05-23T12:32:44.864Z,30.79
2023-05-23T12:35:45.819Z,30.87
2023-05-23T12:38:50.864Z,31.06
2023-05-23T12:41:52.250Z,31.46
2023-05-23T12:44:54.854Z,31.98
2023-05-23T12:47:56.877Z,32.31
2023-05-23T12:50:56.815Z,32.58
2023-05-23T12:53:56.860Z,32.41
2023-05-23T12:56:59.100Z,32.50
2023-05-23T12:59:59.046Z,32.24
2023-05-23T13:02:59.881Z,31.78
2023-05-23T13:05:59.899Z,31.93
2023-05-23T13:09:03.295Z,31.90
2023-05-23T13:12:05.065Z,31.46
2023-05-23T13:15:05.974Z,32.03
2023-05-23T13:18:05.984Z,31.93
2023-05-23T13:21:05.998Z,32.16
2023-05-23T13:24:06.987Z,32.37
2023-05-23T13:27:06.918Z,32.77
2023-05-23T13:30:08.069Z,33.44
2023-05-23T13:33:08.979Z,33.16
2023-05-23T13:36:08.930Z,33.03
2023-05-23T13:39:08.938Z,32.61
2023-05-23T13:42:08.935Z,32.66
2023-05-23T13:45:10.003Z,32.32
2023-05-23T13:48:11.010Z,32.37
2023-05-23T13:51:12.161Z,32.46
2023-05-23T13:54:11.992Z,32.43
2023-05-23T13:57:26.991Z,32.33
2023-05-23T14:00:26.972Z,32.19
2023-05-23T14:03:27.091Z,32.06
2023-05-23T14:06:27.384Z,31.47
2023-05-23T14:09:30.010Z,31.42
2023-05-23T14:12:31.732Z,31.56
2023-05-23T14:15:34.668Z,31.68
2023-05-23T14:18:35.018Z,32.02
2023-05-23T14:21:35.205Z,32.18
2023-05-23T14:24:37.543Z,32.49
2023-05-23T14:27:38.007Z,32.42
2023-05-23T14:30:39.074Z,32.69
2023-05-23T14:33:39.115Z,33.04
2023-05-23T14:36:45.008Z,33.19
2023-05-23T14:39:45.276Z,33.21
2023-05-23T14:42:47.597Z,33.43
2023-05-23T14:45:51.516Z,33.21
2023-05-23T14:48:57.341Z,33.40
2023-05-23T14:51:58.091Z,33.32
2023-05-23T14:54:59.053Z,33.27
2023-05-23T14:58:19.049Z,33.26
2023-05-23T15:01:22.080Z,33.54
2023-05-23T15:04:23.481Z,33.60
2023-05-23T15:07:25.173Z,33.65
2023-05-23T15:10:25.156Z,33.90
2023-05-23T15:13:25.194Z,34.23
2023-05-23T15:16:25.217Z,34.55
2023-05-23T15:19:26.173Z,34.89
2023-05-23T15:25:47.870Z,35.45
2023-05-23T15:28:55.140Z,35.57
2023-05-23T15:31:56.246Z,35.16
2023-05-23T15:34:56.172Z,35.08
2023-05-23T15:37:56.160Z,35.17
2023-05-23T15:40:59.369Z,35.22
2023-05-23T15:43:59.210Z,35.26
2023-05-23T15:47:01.526Z,35.40
2023-05-23T15:50:02.378Z,35.59
2023-05-23T15:53:02.181Z,35.66
2023-05-23T15:56:03.245Z,35.82
2023-05-23T15:59:05.173Z,35.78
2023-05-23T16:02:06.406Z,36.24
2023-05-23T16:05:06.199Z,37.17
2023-05-23T16:08:06.181Z,38.26
2023-05-23T16:11:09.189Z,39.46
2023-05-23T16:14:09.265Z,40.16
2023-05-23T16:17:11.223Z,40.46
2023-05-23T16:20:12.212Z,41.01
2023-05-23T16:23:13.264Z,40.84
2023-05-23T16:26:13.225Z,40.67
2023-05-23T16:29:14.288Z,40.70
2023-05-23T16:32:14.400Z,40.80
2023-05-23T16:35:14.292Z,41.05
2023-05-23T16:38:15.251Z,40.76
2023-05-23T16:41:15.300Z,40.67
2023-05-23T16:44:15.365Z,40.90
2023-05-23T16:47:15.255Z,41.23
2023-05-23T16:50:15.272Z,41.21
2023-05-23T16:53:15.437Z,41.78
2023-05-23T16:56:15.306Z,42.29
2023-05-23T16:59:17.303Z,42.51
2023-05-23T17:02:17.367Z,42.84
2023-05-23T17:05:18.531Z,43.42
2023-05-23T17:08:19.311Z,44.01
2023-05-23T17:11:19.332Z,44.40
2023-05-23T17:14:19.328Z,44.76
2023-05-23T17:17:21.583Z,45.05
2023-05-23T17:20:22.344Z,45.39
2023-05-23T17:23:22.306Z,45.57
2023-05-23T17:26:22.325Z,45.94
2023-05-23T17:29:23.503Z,46.20
2023-05-23T17:32:23.371Z,46.38
2023-05-23T17:35:23.377Z,46.81
2023-05-23T17:38:23.396Z,47.14
2023-05-23T17:41:23.551Z,47.52
2023-05-23T17:44:23.363Z,48.07
2023-05-23T17:47:25.653Z,48.52
2023-05-23T17:50:25.544Z,48.89
2023-05-23T17:53:29.450Z,49.17
2023-05-23T17:56:31.392Z,49.75
2023-05-23T17:59:43.154Z,50.06
2023-05-23T18:02:43.553Z,50.89
2023-05-23T18:05:44.438Z,51.32
2023-05-23T18:08:46.472Z,51.89
2023-05-23T18:11:46.423Z,52.09
2023-05-23T18:14:46.684Z,52.77
2023-05-23T18:17:48.159Z,53.30
2023-05-23T18:20:50.405Z,54.31
2023-05-23T18:23:51.540Z,55.26
2023-05-23T18:26:51.517Z,55.60
2023-05-23T18:29:52.506Z,55.60
2023-05-23T18:32:54.513Z,55.51
2023-05-23T18:35:54.496Z,55.45
2023-05-23T18:38:55.536Z,55.36
2023-05-23T18:41:57.425Z,55.92
2023-05-23T18:44:57.512Z,56.60
2023-05-23T18:47:57.713Z,57.35
2023-05-23T18:50:57.513Z,57.86
2023-05-23T18:53:58.516Z,58.19
2023-05-23T18:56:59.572Z,58.41
2023-05-23T19:00:01.589Z,58.30
2023-05-23T19:03:02.636Z,58.15
2023-05-23T19:06:11.537Z,58.17
2023-05-23T19:09:15.562Z,58.31
2023-05-23T19:12:15.607Z,58.45
2023-05-23T19:15:16.517Z,58.76
2023-05-23T19:18:18.543Z,59.01
2023-05-23T19:21:18.602Z,59.26
2023-05-23T19:24:19.559Z,59.28
2023-05-23T19:27:20.632Z,59.05
2023-05-23T19:30:20.581Z,58.89
2023-05-23T19:33:23.589Z,58.89
2023-05-23T19:36:23.571Z,58.72
2023-05-23T19:39:24.565Z,58.85
2023-05-23T19:42:43.647Z,59.07
2023-05-23T19:45:44.706Z,60.28
2023-05-23T19:48:44.716Z,61.24
2023-05-23T19:51:44.702Z,61.63
2023-05-23T19:54:44.697Z,61.42
2023-05-23T19:57:44.594Z,60.88
2023-05-23T20:00:45.617Z,60.03
2023-05-23T20:03:47.654Z,59.49
2023-05-23T20:06:48.569Z,59.93
2023-05-23T20:09:48.670Z,59.59
2023-05-23T20:12:49.638Z,60.07
2023-05-23T20:15:49.661Z,60.10
2023-05-23T20:18:49.722Z,60.48
2023-05-23T20:21:49.679Z,60.71
2023-05-23T20:24:49.638Z,60.76
2023-05-23T20:27:49.725Z,61.32
2023-05-23T20:30:51.773Z,61.01
2023-05-23T20:33:52.713Z,60.85
2023-05-23T20:36:52.641Z,60.64
2023-05-23T20:39:54.686Z,60.62
2023-05-23T20:42:55.720Z,60.74
2023-05-23T20:45:55.691Z,61.44
2023-05-23T20:48:55.702Z,62.21
2023-05-23T20:51:55.711Z,62.60
2023-05-23T20:54:56.723Z,62.31
2023-05-23T20:58:01.606Z,62.10
2023-05-23T21:01:05.738Z,62.34
2023-05-23T21:04:06.706Z,62.57
2023-05-23T21:07:08.544Z,62.56
2023-05-23T21:10:20.717Z,63.02
2023-05-23T21:13:22.453Z,63.29
2023-05-23T21:16:25.014Z,63.63
2023-05-23T21:19:24.832Z,63.94
2023-05-23T21:22:25.798Z,64.04
2023-05-23T21:25:28.748Z,64.45
2023-05-23T21:28:30.770Z,65.29
2023-05-23T21:31:41.044Z,65.61
2023-05-23T21:34:41.771Z,66.22
2023-05-23T21:37:41.835Z,66.79
2023-05-23T21:40:43.037Z,66.95
2023-05-23T21:43:44.810Z,67.16
2023-05-23T21:46:46.984Z,67.72
2023-05-23T21:49:47.958Z,68.13
2023-05-23T21:52:52.831Z,68.11
2023-05-23T21:55:52.861Z,67.98
2023-05-23T21:58:53.885Z,67.74
2023-05-23T22:01:53.910Z,67.74
2023-05-23T22:04:53.846Z,67.68
2023-05-23T22:07:56.846Z,67.77
2023-05-23T22:10:57.831Z,68.77
2023-05-23T22:14:06.834Z,70.08
2023-05-23T22:17:07.845Z,70.24
2023-05-23T22:20:07.936Z,70.37
2023-05-23T22:23:09.845Z,70.61
2023-05-23T22:26:09.912Z,70.64
2023-05-23T22:29:10.905Z,70.73
2023-05-23T22:32:12.205Z,70.87
2023-05-23T22:35:12.916Z,71.02
2023-05-23T22:38:13.934Z,70.66
2023-05-23T22:41:13.906Z,70.57
2023-05-23T22:44:14.899Z,70.53
2023-05-23T22:47:15.937Z,70.58
2023-05-23T22:50:15.887Z,70.78
2023-05-23T22:53:15.916Z,71.10
2023-05-23T22:56:16.875Z,71.78
2023-05-23T22:59:16.956Z,72.38
2023-05-23T23:02:16.947Z,72.57
2023-05-23T23:05:18.949Z,73.15
2023-05-23T23:08:18.983Z,73.80
2023-05-23T23:11:19.144Z,73.72
2023-05-23T23:14:19.920Z,73.98
2023-05-23T23:17:21.042Z,75.10
2023-05-23T23:20:23.025Z,80.02
2023-05-23T23:23:15.993Z,80.58
2023-05-23T23:26:15.952Z,80.84
2023-05-23T23:29:15.931Z,80.92
2023-05-23T23:32:15.971Z,81.01
2023-05-23T23:35:15.974Z,81.36
2023-05-23T23:38:16.083Z,83.26
2023-05-23T23:41:16.015Z,84.60
2023-05-23T23:44:15.980Z,84.57
2023-05-23T23:47:15.991Z,83.75
2023-05-23T23:50:16.116Z,82.98
2023-05-23T23:53:16.008Z,84.13
2023-05-23T23:56:15.987Z,85.10
2023-05-23T23:59:15.999Z,85.68
